createdAt,value
2017-11-21T00:01:58.092Z,84.90
2017-11-21T00:04:25.003Z,84.90
2017-11-21T00:06:51.949Z,85.80
2017-11-21T00:09:19.304Z,87.20
2017-11-21T00:11:46.188Z,87.20
2017-11-21T00:14:13.095Z,87.40
2017-11-21T00:16:40.006Z,88.00
2017-11-21T00:19:06.924Z,88.00
2017-11-21T00:21:33.853Z,88.60
2017-11-21T00:24:01.168Z,88.70
2017-11-21T00:26:28.139Z,88.70
2017-11-21T00:28:55.495Z,89.10
2017-11-21T00:31:22.802Z,89.20
2017-11-21T00:33:49.707Z,89.20
2017-11-21T00:36:17.042Z,89.10
2017-11-21T00:38:43.996Z,89.00
2017-11-21T00:41:11.279Z,88.60
2017-11-21T00:43:38.165Z,88.60
2017-11-21T00:46:05.180Z,88.40
2017-11-21T00:48:32.084Z,88.30
2017-11-21T00:50:59.370Z,88.30
2017-11-21T00:53:26.286Z,88.30
2017-11-21T00:55:53.590Z,88.70
2017-11-21T00:58:20.470Z,88.70
2017-11-21T01:00:47.435Z,88.70
2017-11-21T01:03:14.347Z,88.50
2017-11-21T01:05:41.235Z,88.20
2017-11-21T01:08:08.560Z,87.20
2017-11-21T01:10:35.527Z,87.20
2017-11-21T01:13:02.475Z,87.10
2017-11-21T01:15:29.782Z,87.10
2017-11-21T01:17:56.667Z,87.10
2017-11-21T01:20:23.619Z,87.10
2017-11-21T01:22:50.509Z,86.70
2017-11-21T01:25:17.468Z,86.30
2017-11-21T01:27:44.458Z,85.80
2017-11-21T01:30:11.389Z,85.60
2017-11-21T01:32:38.294Z,85.50
2017-11-21T01:35:05.318Z,85.60
2017-11-21T01:37:32.336Z,85.10
2017-11-21T01:39:59.219Z,84.90
2017-11-21T01:42:26.143Z,85.10
2017-11-21T01:44:53.492Z,85.10
2017-11-21T01:47:20.430Z,85.10
2017-11-21T01:49:47.805Z,84.90
2017-11-21T01:52:15.099Z,84.80
2017-11-21T01:54:42.011Z,84.80
2017-11-21T01:57:09.307Z,84.90
2017-11-21T01:59:36.299Z,84.90
2017-11-21T02:02:03.858Z,84.30
2017-11-21T02:04:30.750Z,84.30
2017-11-21T02:06:57.646Z,84.40
2017-11-21T02:09:24.589Z,84.50
2017-11-21T02:11:51.514Z,84.50
2017-11-21T02:14:18.438Z,84.60
2017-11-21T02:16:45.335Z,84.40
2017-11-21T02:19:12.667Z,84.70
2017-11-21T02:21:39.554Z,84.70
2017-11-21T02:24:06.446Z,84.90
2017-11-21T02:26:33.354Z,85.00
2017-11-21T02:29:00.242Z,84.90
2017-11-21T02:31:27.154Z,84.70
2017-11-21T02:33:54.072Z,84.80
2017-11-21T02:36:21.367Z,84.60
2017-11-21T02:38:48.299Z,84.60
2017-11-21T02:41:15.189Z,84.70
2017-11-21T02:43:42.106Z,84.90
2017-11-21T02:46:09.023Z,84.90
2017-11-21T02:48:35.928Z,84.90
2017-11-21T02:51:02.822Z,84.80
2017-11-21T02:53:29.735Z,85.10
2017-11-21T02:55:56.617Z,85.40
2017-11-21T02:58:23.541Z,85.30
2017-11-21T03:00:50.842Z,85.30
2017-11-21T03:03:17.775Z,85.30
2017-11-21T03:05:44.671Z,85.40
2017-11-21T03:08:11.970Z,85.70
2017-11-21T03:10:38.878Z,85.70
2017-11-21T03:13:06.178Z,85.70
2017-11-21T03:15:33.063Z,85.80
2017-11-21T03:17:59.982Z,85.90
2017-11-21T03:20:38.833Z,86.00
2017-11-21T03:23:17.802Z,85.90
2017-11-21T03:25:56.688Z,86.30
2017-11-21T03:28:35.607Z,86.40
2017-11-21T03:31:02.501Z,86.00
2017-11-21T03:33:29.400Z,85.90
2017-11-21T03:35:56.318Z,85.70
2017-11-21T03:38:23.203Z,86.40
2017-11-21T03:40:50.126Z,86.90
2017-11-21T03:43:17.014Z,87.30
2017-11-21T03:45:44.323Z,87.10
2017-11-21T03:48:11.211Z,87.10
2017-11-21T03:50:38.547Z,85.90
2017-11-21T03:53:05.870Z,85.70
2017-11-21T03:55:32.779Z,85.70
2017-11-21T03:57:59.694Z,85.50
2017-11-21T04:00:26.988Z,85.00
2017-11-21T04:02:53.909Z,85.00
2017-11-21T04:05:21.191Z,85.70
2017-11-21T04:07:48.083Z,85.70
2017-11-21T04:10:15.010Z,86.10
2017-11-21T04:12:41.894Z,86.00
2017-11-21T04:15:09.243Z,85.00
2017-11-21T04:17:36.131Z,85.00
2017-11-21T04:20:03.037Z,85.00
2017-11-21T04:22:30.343Z,85.00
2017-11-21T04:24:57.260Z,85.00
2017-11-21T04:27:24.151Z,85.10
2017-11-21T04:29:51.052Z,85.10
2017-11-21T04:32:18.026Z,84.90
2017-11-21T04:34:44.907Z,85.00
2017-11-21T04:37:11.823Z,85.20
2017-11-21T04:39:38.710Z,85.80
2017-11-21T04:42:06.049Z,86.00
2017-11-21T04:44:33.007Z,86.00
2017-11-21T04:47:00.296Z,85.30
2017-11-21T04:49:27.212Z,85.30
2017-11-21T04:51:54.510Z,85.30
2017-11-21T04:54:21.415Z,85.30
2017-11-21T04:56:48.698Z,86.00
2017-11-21T04:59:15.613Z,86.00
2017-11-21T05:01:42.509Z,86.50
2017-11-21T05:04:09.429Z,86.10
2017-11-21T05:06:36.448Z,85.40
2017-11-21T05:09:03.332Z,85.70
2017-11-21T05:11:30.211Z,85.40
2017-11-21T05:13:57.148Z,85.20
2017-11-21T05:16:24.038Z,85.10
2017-11-21T05:18:51.322Z,85.20
2017-11-21T05:21:18.243Z,85.20
2017-11-21T05:23:45.533Z,85.20
2017-11-21T05:26:12.463Z,85.20
2017-11-21T05:28:39.350Z,85.30
2017-11-21T05:31:06.254Z,85.10
2017-11-21T05:33:38.658Z,85.00
2017-11-21T05:36:05.574Z,84.90
2017-11-21T05:38:32.472Z,84.70
2017-11-21T05:40:59.401Z,84.60
2017-11-21T05:43:26.294Z,85.00
2017-11-21T05:45:53.590Z,85.90
2017-11-21T05:48:20.487Z,85.90
2017-11-21T05:50:47.813Z,84.90
2017-11-21T05:53:14.700Z,84.90
2017-11-21T05:55:41.595Z,84.80
2017-11-21T05:58:08.527Z,84.70
2017-11-21T06:00:35.456Z,84.80
2017-11-21T06:03:02.339Z,84.70
2017-11-21T06:05:29.269Z,84.60
2017-11-21T06:07:56.255Z,84.30
2017-11-21T06:10:23.612Z,84.50
2017-11-21T06:12:50.542Z,84.50
2017-11-21T06:15:17.429Z,84.20
2017-11-21T06:17:44.416Z,84.00
2017-11-21T06:20:11.307Z,83.50
2017-11-21T06:22:38.353Z,83.60
2017-11-21T06:25:05.699Z,84.40
2017-11-21T06:27:32.626Z,84.40
2017-11-21T06:29:59.582Z,84.90
2017-11-21T06:32:26.543Z,84.90
2017-11-21T06:34:53.503Z,84.70
2017-11-21T06:37:20.790Z,84.60
2017-11-21T06:39:47.732Z,84.60
2017-11-21T06:42:14.640Z,84.40
2017-11-21T06:44:41.987Z,84.20
2017-11-21T06:47:08.906Z,84.20
2017-11-21T06:49:35.857Z,84.00
2017-11-21T06:52:02.827Z,84.00
2017-11-21T06:54:30.134Z,83.60
2017-11-21T06:56:57.123Z,83.60
2017-11-21T06:59:24.026Z,83.60
2017-11-21T07:01:50.928Z,84.20
2017-11-21T07:04:18.282Z,84.90
2017-11-21T07:06:45.642Z,85.00
2017-11-21T07:09:12.919Z,85.30
2017-11-21T07:11:39.870Z,85.30
2017-11-21T07:14:06.921Z,86.60
2017-11-21T07:16:33.837Z,87.00
2017-11-21T07:19:01.178Z,86.60
2017-11-21T07:21:28.131Z,86.60
2017-11-21T07:23:55.434Z,85.80
2017-11-21T07:26:22.448Z,85.70
2017-11-21T07:28:49.792Z,85.20
2017-11-21T07:31:16.692Z,85.20
2017-11-21T07:33:43.604Z,84.80
2017-11-21T07:36:10.516Z,85.00
2017-11-21T07:38:37.454Z,85.30
2017-11-21T07:41:04.412Z,85.20
2017-11-21T07:43:31.359Z,85.20
2017-11-21T07:45:58.303Z,85.40
2017-11-21T07:48:25.217Z,85.60
2017-11-21T07:50:52.200Z,85.50
2017-11-21T07:53:19.528Z,86.20
2017-11-21T07:55:46.557Z,86.20
2017-11-21T07:58:13.490Z,86.20
2017-11-21T08:00:40.380Z,86.20
2017-11-21T08:03:07.276Z,86.40
2017-11-21T08:05:34.186Z,86.50
2017-11-21T08:08:01.095Z,86.50
2017-11-21T08:10:27.994Z,86.70
2017-11-21T08:12:55.303Z,86.70
2017-11-21T08:15:22.224Z,86.70
2017-11-21T08:17:49.125Z,86.90
2017-11-21T08:20:16.479Z,87.50
2017-11-21T08:22:43.425Z,87.40
2017-11-21T08:25:10.335Z,87.20
2017-11-21T08:27:37.242Z,87.40
2017-11-21T08:30:04.159Z,87.40
2017-11-21T08:32:31.116Z,87.30
2017-11-21T08:34:58.451Z,87.30
2017-11-21T08:37:25.396Z,87.30
2017-11-21T08:39:52.358Z,87.20
2017-11-21T08:42:19.715Z,87.00
2017-11-21T08:44:47.071Z,87.10
2017-11-21T08:47:14.095Z,87.10
2017-11-21T08:49:40.991Z,87.20
2017-11-21T08:52:07.883Z,87.10
2017-11-21T08:54:34.855Z,87.20
2017-11-21T08:57:01.842Z,87.20
2017-11-21T08:59:28.764Z,87.10
2017-11-21T09:01:56.055Z,86.80
2017-11-21T09:04:22.938Z,86.80
2017-11-21T09:06:49.902Z,86.90
2017-11-21T09:09:17.178Z,87.10
2017-11-21T09:11:44.096Z,87.10
2017-11-21T09:14:11.541Z,87.40
2017-11-21T09:16:38.546Z,87.40
2017-11-21T09:19:05.434Z,87.20
2017-11-21T09:21:32.399Z,87.00
2017-11-21T09:23:59.679Z,86.20
2017-11-21T09:26:26.723Z,86.20
2017-11-21T09:28:53.639Z,86.30
2017-11-21T09:31:20.584Z,85.50
2017-11-21T09:33:47.962Z,85.70
2017-11-21T09:36:15.303Z,86.00
2017-11-21T09:38:42.662Z,86.00
2017-11-21T09:41:10.008Z,85.90
2017-11-21T09:43:36.909Z,85.90
2017-11-21T09:46:03.832Z,85.90
2017-11-21T09:48:30.718Z,86.00
2017-11-21T09:50:57.690Z,86.10
2017-11-21T09:53:24.650Z,85.70
2017-11-21T09:55:52.040Z,85.70
2017-11-21T09:58:18.954Z,85.70
2017-11-21T10:00:46.349Z,85.80
2017-11-21T10:03:13.270Z,85.80
2017-11-21T10:05:40.583Z,85.60
2017-11-21T10:08:07.503Z,85.60
2017-11-21T10:10:34.393Z,85.10
2017-11-21T10:13:01.304Z,85.40
2017-11-21T10:15:28.229Z,85.60
2017-11-21T10:17:55.134Z,85.20
2017-11-21T10:20:22.471Z,85.20
2017-11-21T10:22:49.408Z,85.20
2017-11-21T10:25:16.322Z,85.20
2017-11-21T10:27:43.239Z,85.10
2017-11-21T10:30:10.550Z,85.20
2017-11-21T10:32:37.459Z,85.20
2017-11-21T10:35:04.368Z,85.30
2017-11-21T10:37:31.290Z,85.30
2017-11-21T10:39:58.175Z,85.20
2017-11-21T10:42:25.486Z,85.00
2017-11-21T10:44:52.458Z,85.00
2017-11-21T10:47:19.824Z,85.10
2017-11-21T10:49:47.178Z,85.10
2017-11-21T10:52:14.454Z,84.90
2017-11-21T10:54:41.345Z,84.90
2017-11-21T10:57:08.267Z,84.60
2017-11-21T10:59:35.148Z,84.70
2017-11-21T11:02:02.032Z,84.90
2017-11-21T11:04:28.947Z,84.70
2017-11-21T11:06:55.842Z,84.20
2017-11-21T11:09:22.814Z,84.20
2017-11-21T11:11:49.706Z,84.40
2017-11-21T11:14:16.993Z,84.70
2017-11-21T11:16:43.900Z,84.70
2017-11-21T11:19:11.190Z,84.30
2017-11-21T11:21:38.098Z,84.30
2017-11-21T11:24:05.440Z,84.00
2017-11-21T11:26:32.435Z,84.00
2017-11-21T11:28:59.342Z,84.00
2017-11-21T11:31:26.639Z,83.50
2017-11-21T11:33:53.566Z,83.50
2017-11-21T11:36:20.492Z,83.70
2017-11-21T11:38:47.394Z,83.60
2017-11-21T11:41:14.322Z,83.60
2017-11-21T11:43:41.218Z,83.50
2017-11-21T11:46:08.117Z,83.40
2017-11-21T11:48:35.028Z,83.50
2017-11-21T11:51:02.316Z,83.50
2017-11-21T11:53:29.419Z,83.50
2017-11-21T11:55:56.311Z,83.10
2017-11-21T11:58:23.196Z,82.50
2017-11-21T12:00:50.126Z,82.60
2017-11-21T12:03:17.022Z,83.20
2017-11-21T12:05:44.334Z,83.10
2017-11-21T12:08:11.218Z,83.10
2017-11-21T12:10:38.539Z,83.10
2017-11-21T12:13:05.423Z,83.10
2017-11-21T12:15:32.726Z,82.10
2017-11-21T12:17:59.639Z,82.10
2017-11-21T12:20:26.563Z,82.30
2017-11-21T12:22:53.859Z,82.20
2017-11-21T12:25:20.766Z,82.20
2017-11-21T12:27:48.120Z,81.60
2017-11-21T12:30:15.434Z,81.60
2017-11-21T12:32:42.347Z,81.60
2017-11-21T12:35:09.275Z,82.00
2017-11-21T12:37:36.191Z,81.80
2017-11-21T12:40:03.102Z,81.60
2017-11-21T12:42:30.004Z,81.60
2017-11-21T12:44:57.315Z,81.60
2017-11-21T12:47:24.211Z,81.60
2017-11-21T12:49:51.527Z,81.60
2017-11-21T12:52:18.411Z,81.60
2017-11-21T12:54:45.700Z,81.80
2017-11-21T12:57:12.630Z,81.80
2017-11-21T12:59:39.558Z,81.40
2017-11-21T13:02:06.490Z,81.20
2017-11-21T13:04:33.780Z,81.60
2017-11-21T13:07:00.723Z,81.60
2017-11-21T13:09:27.611Z,81.50
2017-11-21T13:11:54.518Z,81.30
2017-11-21T13:14:21.435Z,81.10
2017-11-21T13:16:48.719Z,81.90
2017-11-21T13:19:15.634Z,81.90
2017-11-21T13:21:42.936Z,83.70
2017-11-21T13:24:09.821Z,83.70
2017-11-21T13:26:37.156Z,84.60
2017-11-21T13:29:04.050Z,84.60
2017-11-21T13:31:30.938Z,84.60
2017-11-21T13:33:57.859Z,84.80
2017-11-21T13:36:24.797Z,84.80
2017-11-21T13:38:51.716Z,85.10
2017-11-21T13:41:19.019Z,84.70
2017-11-21T13:43:45.954Z,84.70
2017-11-21T13:46:12.869Z,84.90
2017-11-21T13:48:40.167Z,84.80
2017-11-21T13:51:07.062Z,84.80
2017-11-21T13:53:34.432Z,84.90
2017-11-21T13:56:01.339Z,84.90
2017-11-21T13:58:28.270Z,84.60
2017-11-21T14:00:55.169Z,84.70
2017-11-21T14:03:22.060Z,84.60
2017-11-21T14:05:48.976Z,84.60
2017-11-21T14:08:15.871Z,84.90
2017-11-21T14:10:42.781Z,84.20
2017-11-21T14:13:09.682Z,84.00
2017-11-21T14:15:36.655Z,83.90
2017-11-21T14:18:03.535Z,84.40
2017-11-21T14:20:30.426Z,84.10
2017-11-21T14:22:57.736Z,83.80
2017-11-21T14:25:24.614Z,83.80
2017-11-21T14:27:51.935Z,84.30
2017-11-21T14:30:18.821Z,84.30
2017-11-21T14:32:46.155Z,84.60
2017-11-21T14:35:13.074Z,84.60
2017-11-21T14:37:39.993Z,84.50
2017-11-21T14:40:06.912Z,84.20
2017-11-21T14:42:34.202Z,84.50
2017-11-21T14:45:01.124Z,84.50
2017-11-21T14:47:28.428Z,84.20
2017-11-21T14:49:55.323Z,84.20
2017-11-21T14:52:22.244Z,84.10
2017-11-21T14:54:50.365Z,83.50
2017-11-21T14:57:17.287Z,83.50
2017-11-21T14:59:44.330Z,83.80
2017-11-21T15:02:11.255Z,83.80
2017-11-21T15:04:38.143Z,83.10
2017-11-21T15:07:05.035Z,82.70
2017-11-21T15:09:31.959Z,82.90
2017-11-21T15:11:58.878Z,82.40
2017-11-21T15:14:25.794Z,82.40
2017-11-21T15:16:53.082Z,82.60
2017-11-21T15:19:20.002Z,82.60
2017-11-21T15:21:47.290Z,82.50
2017-11-21T15:24:14.171Z,82.50
2017-11-21T15:26:41.080Z,82.40
2017-11-21T15:29:07.967Z,82.60
2017-11-21T15:31:34.881Z,82.60
2017-11-21T15:34:06.755Z,82.30
2017-11-21T15:36:33.703Z,82.30
2017-11-21T15:39:00.688Z,82.20
2017-11-21T15:41:27.967Z,82.40
2017-11-21T15:43:54.899Z,82.40
2017-11-21T15:46:21.796Z,82.40
2017-11-21T15:48:48.706Z,82.40
2017-11-21T15:51:15.619Z,82.20
2017-11-21T15:53:42.523Z,82.30
2017-11-21T15:56:09.498Z,82.20
2017-11-21T15:58:36.379Z,82.30
2017-11-21T16:01:03.338Z,82.60
2017-11-21T16:03:30.265Z,82.70
2017-11-21T16:05:57.567Z,82.40
2017-11-21T16:08:24.543Z,82.40
2017-11-21T16:10:51.864Z,82.20
2017-11-21T16:13:18.893Z,82.20
2017-11-21T16:15:45.802Z,82.20
2017-11-21T16:18:13.160Z,81.60
2017-11-21T16:20:40.040Z,81.60
2017-11-21T16:23:06.922Z,81.60
2017-11-21T16:25:33.843Z,81.80
2017-11-21T16:28:00.776Z,82.10
2017-11-21T16:30:27.691Z,82.00
2017-11-21T16:32:55.082Z,82.50
2017-11-21T16:35:21.971Z,82.50
2017-11-21T16:37:48.928Z,81.90
2017-11-21T16:40:16.222Z,80.70
2017-11-21T16:42:43.169Z,80.70
2017-11-21T16:45:10.066Z,80.80
2017-11-21T16:47:37.368Z,80.80
2017-11-21T16:50:04.313Z,80.80
2017-11-21T16:52:31.214Z,81.00
2017-11-21T16:54:58.099Z,81.60
2017-11-21T16:57:25.022Z,81.30
2017-11-21T16:59:52.313Z,81.00
2017-11-21T17:02:19.229Z,81.00
2017-11-21T17:04:46.510Z,81.20
2017-11-21T17:07:13.442Z,81.10
2017-11-21T17:09:40.338Z,81.50
2017-11-21T17:12:07.254Z,81.50
2017-11-21T17:14:34.170Z,81.40
2017-11-21T17:17:01.071Z,82.00
2017-11-21T17:19:28.040Z,82.10
2017-11-21T17:21:55.378Z,81.20
2017-11-21T17:24:22.288Z,81.20
2017-11-21T17:26:49.432Z,81.00
2017-11-21T17:29:16.449Z,80.70
2017-11-21T17:31:43.728Z,80.30
2017-11-21T17:34:10.654Z,80.40
2017-11-21T17:36:37.952Z,79.60
2017-11-21T17:39:04.959Z,79.60
2017-11-21T17:41:32.284Z,80.30
2017-11-21T17:43:59.173Z,80.30
2017-11-21T17:46:26.094Z,80.50
2017-11-21T17:48:53.399Z,79.10
2017-11-21T17:51:20.297Z,79.10
2017-11-21T17:53:47.643Z,78.90
2017-11-21T17:56:14.535Z,78.90
2017-11-21T17:58:41.426Z,78.90
2017-11-21T18:01:08.356Z,78.30
2017-11-21T18:03:35.280Z,78.70
2017-11-21T18:06:02.182Z,78.50
2017-11-21T18:08:29.484Z,79.20
2017-11-21T18:10:56.399Z,79.20
2017-11-21T18:13:23.292Z,79.20
2017-11-21T18:15:50.269Z,79.70
2017-11-21T18:18:17.578Z,80.30
2017-11-21T18:20:44.563Z,80.30
2017-11-21T18:23:11.558Z,79.90
2017-11-21T18:25:38.464Z,80.00
2017-11-21T18:28:05.351Z,80.60
2017-11-21T18:30:32.262Z,80.90
2017-11-21T18:33:01.232Z,80.70
2017-11-21T18:35:28.151Z,80.70
2017-11-21T18:37:55.139Z,80.50
2017-11-21T18:40:22.448Z,80.10
2017-11-21T18:42:49.359Z,80.10
2017-11-21T18:45:16.734Z,80.40
2017-11-21T18:47:43.647Z,80.40
2017-11-21T18:50:22.809Z,80.50
2017-11-21T18:52:49.865Z,80.50
2017-11-21T18:55:16.910Z,80.70
2017-11-21T18:57:43.883Z,80.70
2017-11-21T19:00:10.859Z,80.60
2017-11-21T19:02:38.143Z,79.30
2017-11-21T19:05:05.218Z,79.20
2017-11-21T19:07:32.134Z,79.60
2017-11-21T19:09:59.421Z,80.40
2017-11-21T19:12:26.346Z,80.40
2017-11-21T19:14:53.255Z,80.20
2017-11-21T19:17:20.207Z,79.30
2017-11-21T19:19:47.154Z,79.60
2017-11-21T19:22:14.435Z,79.80
2017-11-21T19:24:41.363Z,79.80
2017-11-21T19:27:08.710Z,79.80
2017-11-21T19:29:35.652Z,79.80
2017-11-21T19:32:02.553Z,79.70
2017-11-21T19:34:29.439Z,79.90
2017-11-21T19:36:56.395Z,79.70
2017-11-21T19:39:23.297Z,79.70
2017-11-21T19:41:50.197Z,79.90
2017-11-21T19:44:17.494Z,79.80
2017-11-21T19:46:44.532Z,79.80
2017-11-21T19:49:11.434Z,79.60
2017-11-21T19:51:38.770Z,78.80
2017-11-21T19:54:05.659Z,78.80
2017-11-21T19:56:32.755Z,78.60
2017-11-21T19:58:59.671Z,78.20
2017-11-21T20:01:26.578Z,78.00
2017-11-21T20:03:53.526Z,78.00
2017-11-21T20:06:20.851Z,77.80
2017-11-21T20:08:47.818Z,77.80
2017-11-21T20:11:14.734Z,77.70
2017-11-21T20:13:41.653Z,77.10
2017-11-21T20:16:08.534Z,76.70
2017-11-21T20:18:35.476Z,76.90
2017-11-21T20:21:02.403Z,77.10
2017-11-21T20:23:29.298Z,77.20
2017-11-21T20:25:56.211Z,77.40
2017-11-21T20:28:23.098Z,77.30
2017-11-21T20:30:50.413Z,77.40
2017-11-21T20:33:17.294Z,77.40
2017-11-21T20:35:44.585Z,77.00
2017-11-21T20:38:11.489Z,77.00
2017-11-21T20:40:38.783Z,77.10
2017-11-21T20:43:05.694Z,77.10
2017-11-21T20:45:32.997Z,77.20
2017-11-21T20:47:59.919Z,77.20
2017-11-21T20:50:26.805Z,77.20
2017-11-21T20:52:53.706Z,77.20
2017-11-21T20:55:20.614Z,77.40
2017-11-21T20:57:47.567Z,77.70
2017-11-21T21:00:22.145Z,77.80
2017-11-21T21:02:49.035Z,77.70
2017-11-21T21:05:15.959Z,77.50
2017-11-21T21:07:42.936Z,77.40
2017-11-21T21:10:10.218Z,77.40
2017-11-21T21:12:37.134Z,77.40
2017-11-21T21:15:04.031Z,77.60
2017-11-21T21:17:31.026Z,77.50
2017-11-21T21:19:58.345Z,77.50
2017-11-21T21:22:25.231Z,77.50
2017-11-21T21:24:52.140Z,77.70
2017-11-21T21:27:30.832Z,77.70
2017-11-21T21:29:57.725Z,77.80
2017-11-21T21:32:24.619Z,77.60
2017-11-21T21:34:51.530Z,77.70
2017-11-21T21:37:18.480Z,77.90
2017-11-21T21:39:45.395Z,77.50
2017-11-21T21:42:12.282Z,77.60
2017-11-21T21:44:39.619Z,77.50
2017-11-21T21:47:06.535Z,77.50
2017-11-21T21:49:33.512Z,77.70
2017-11-21T21:52:00.426Z,77.80
2017-11-21T21:54:27.339Z,77.40
2017-11-21T21:56:54.226Z,77.10
2017-11-21T21:59:21.141Z,77.00
2017-11-21T22:01:48.059Z,77.00
2017-11-21T22:04:15.406Z,77.30
2017-11-21T22:06:42.687Z,77.20
2017-11-21T22:09:09.618Z,77.20
2017-11-21T22:11:36.954Z,76.60
2017-11-21T22:14:03.864Z,76.60
2017-11-21T22:16:30.855Z,76.60
2017-11-21T22:18:58.142Z,76.90
2017-11-21T22:21:25.152Z,76.90
2017-11-21T22:23:52.437Z,77.40
2017-11-21T22:26:19.355Z,77.30
2017-11-21T22:28:46.706Z,78.00
2017-11-21T22:31:13.628Z,78.00
2017-11-21T22:33:40.540Z,78.00
2017-11-21T22:36:07.444Z,78.30
2017-11-21T22:38:34.363Z,78.20
2017-11-21T22:41:01.269Z,78.30
2017-11-21T22:43:28.199Z,78.40
2017-11-21T22:45:55.483Z,77.90
2017-11-21T22:48:22.370Z,77.90
2017-11-21T22:50:49.302Z,77.90
2017-11-21T22:53:16.190Z,77.90
2017-11-21T22:55:43.531Z,77.70
2017-11-21T22:58:10.457Z,77.70
2017-11-21T23:00:37.462Z,76.80
2017-11-21T23:03:04.378Z,77.20
2017-11-21T23:05:31.659Z,76.50
2017-11-21T23:07:58.598Z,76.50
2017-11-21T23:10:25.486Z,76.70
2017-11-21T23:12:52.380Z,76.10
2017-11-21T23:15:19.300Z,76.20
2017-11-21T23:17:46.252Z,75.80
2017-11-21T23:20:13.166Z,75.60
2017-11-21T23:22:40.088Z,75.90
2017-11-21T23:25:06.979Z,76.00
2017-11-21T23:27:33.899Z,76.30
2017-11-21T23:30:00.790Z,76.40
2017-11-21T23:32:28.092Z,75.90
2017-11-21T23:34:55.008Z,75.90
2017-11-21T23:37:21.900Z,75.90
2017-11-21T23:39:48.838Z,76.00
2017-11-21T23:42:15.832Z,76.20
2017-11-21T23:44:43.116Z,76.30
2017-11-21T23:47:10.026Z,76.30
2017-11-21T23:49:37.309Z,76.30
2017-11-21T23:52:04.235Z,76.30
2017-11-21T23:54:31.540Z,76.50
2017-11-21T23:56:58.438Z,76.50
2017-11-21T23:59:25.754Z,76.50
